Time;durP1;ratioP1;P1;durP2;ratioP2;P2;SDS_P1;SDS_P2;PMS_P1;PMS_P2;Temp;Humidity;BMP_temperature;BMP_pressure;BME280_temperature;BME280_humidity;BME280_pressure;Samples;Min_cycle;Max_cycle;Signal;HPM_P1;HPM_P2
2021/07/22 00:00:52;;;;;;;8.95;3.97;;;;;;;25.73;43.44;102246.88;5072553;28;20016;-75
2021/07/22 00:03:17;;;;;;;6.13;4.10;;;;;;;25.69;43.79;102241.22;5071906;28;20032;-75
2021/07/22 00:05:43;;;;;;;6.30;4.60;;;;;;;25.78;44.10;102242.94;5073190;28;20030;-75
2021/07/22 00:08:11;;;;;;;7.95;3.95;;;;;;;25.77;44.06;102246.91;5073022;28;20037;-75
2021/07/22 00:10:40;;;;;;;8.98;4.55;;;;;;;25.73;44.30;102244.88;5073184;28;20108;-76
2021/07/22 00:13:06;;;;;;;8.65;4.90;;;;;;;25.73;44.11;102241.28;5072819;28;20107;-82
2021/07/22 00:15:33;;;;;;;7.32;4.43;;;;;;;25.77;43.89;102242.13;5071618;28;20027;-93
2021/07/22 00:17:59;;;;;;;7.82;3.80;;;;;;;25.83;44.02;102245.38;5073109;28;20025;-76
2021/07/22 00:20:25;;;;;;;6.35;4.30;;;;;;;25.88;43.99;102245.03;5071886;28;20030;-75
2021/07/22 00:22:51;;;;;;;6.47;4.15;;;;;;;25.90;43.42;102246.28;5072864;28;20056;-76
2021/07/22 00:25:17;;;;;;;6.93;4.00;;;;;;;25.81;43.82;102242.97;5071779;28;20192;-76
2021/07/22 00:27:42;;;;;;;7.35;3.88;;;;;;;25.80;44.20;102246.97;5072919;28;20029;-76
2021/07/22 00:30:09;;;;;;;4.63;4.00;;;;;;;25.75;44.12;102247.28;5072647;28;20108;-75
2021/07/22 00:32:35;;;;;;;4.47;2.58;;;;;;;25.73;43.48;102246.88;5071788;28;20166;-76
2021/07/22 00:35:02;;;;;;;16.08;4.88;;;;;;;25.64;43.74;102246.31;5072409;28;20044;-75
2021/07/22 00:37:28;;;;;;;13.80;5.00;;;;;;;25.69;43.58;102244.00;5072897;28;20475;-94
2021/07/22 00:39:54;;;;;;;10.38;3.80;;;;;;;25.70;43.65;102244.81;5072694;28;20047;-76
2021/07/22 00:42:19;;;;;;;7.35;3.92;;;;;;;25.65;43.02;102243.13;5072625;28;20471;-75
2021/07/22 00:44:45;;;;;;;10.15;4.00;;;;;;;25.58;43.25;102239.44;5072412;28;20028;-75
2021/07/22 00:47:11;;;;;;;8.30;4.13;;;;;;;25.59;43.00;102238.25;5072402;28;20532;-75
2021/07/22 00:49:37;;;;;;;9.80;3.75;;;;;;;25.42;43.53;102237.63;5071976;28;20386;-93
2021/07/22 00:52:03;;;;;;;11.32;4.80;;;;;;;25.38;43.80;102238.75;5072131;28;20487;-76
2021/07/22 00:54:28;;;;;;;9.40;3.78;;;;;;;25.38;43.26;102241.56;5070904;28;20102;-76
2021/07/22 00:56:54;;;;;;;5.55;4.03;;;;;;;25.20;43.78;102246.09;5071711;28;20070;-75
2021/07/22 00:59:20;;;;;;;9.05;4.72;;;;;;;25.08;43.45;102235.94;5071937;28;20068;-75
2021/07/22 01:01:45;;;;;;;10.85;3.45;;;;;;;24.98;42.87;102237.38;5071962;28;20542;-92
2021/07/22 01:04:11;;;;;;;8.25;4.90;;;;;;;24.92;42.75;102236.06;5070524;28;20029;-90
2021/07/22 01:06:37;;;;;;;10.70;3.97;;;;;;;24.83;42.83;102233.53;5071821;28;20032;-76
2021/07/22 01:09:02;;;;;;;11.73;4.75;;;;;;;24.79;41.98;102229.88;5071867;28;20112;-75
2021/07/22 01:11:28;;;;;;;10.93;4.45;;;;;;;24.69;42.15;102227.72;5070703;28;20120;-76
2021/07/22 01:13:54;;;;;;;12.27;5.82;;;;;;;24.77;41.44;102223.03;5075299;28;20390;-75
2021/07/22 01:16:19;;;;;;;10.77;4.25;;;;;;;24.64;41.58;102219.66;5075566;28;20046;-75
2021/07/22 01:18:45;;;;;;;9.57;4.13;;;;;;;24.56;41.64;102226.28;5074321;28;20075;-75
2021/07/22 01:21:10;;;;;;;10.13;5.22;;;;;;;24.59;41.65;102231.13;5075662;28;20052;-75
2021/07/22 01:23:36;;;;;;;7.20;5.00;;;;;;;24.68;41.72;102219.69;5075647;28;20098;-75
2021/07/22 01:26:02;;;;;;;10.30;5.38;;;;;;;24.74;42.14;102224.59;5075600;28;20028;-75
2021/07/22 01:28:28;;;;;;;7.72;5.07;;;;;;;24.75;42.39;102222.63;5075361;28;20028;-76
2021/07/22 01:30:54;;;;;;;7.60;5.05;;;;;;;24.76;42.53;102218.63;5075483;28;20379;-92
2021/07/22 01:33:19;;;;;;;6.63;4.95;;;;;;;24.76;43.05;102222.25;5075345;28;20111;-76
2021/07/22 01:35:45;;;;;;;7.60;4.22;;;;;;;24.79;43.23;102231.88;5075159;28;20051;-75
2021/07/22 01:38:11;;;;;;;6.78;4.13;;;;;;;24.73;43.62;102228.59;5075546;28;20024;-93
2021/07/22 01:40:36;;;;;;;6.82;4.28;;;;;;;24.74;43.56;102232.19;5075290;28;20021;-75
2021/07/22 01:43:05;;;;;;;7.43;4.25;;;;;;;24.73;44.08;102228.59;5073854;28;20133;-93
2021/07/22 01:45:31;;;;;;;8.50;4.57;;;;;;;24.70;44.11;102229.31;5075298;28;20024;-94
2021/07/22 01:47:57;;;;;;;5.38;3.97;;;;;;;24.66;43.82;102224.88;5073892;28;20091;-75
2021/07/22 01:50:22;;;;;;;7.78;4.18;;;;;;;24.71;44.02;102228.16;5075245;28;20024;-75
2021/07/22 01:52:48;;;;;;;8.77;4.68;;;;;;;24.66;44.19;102222.06;5075167;28;20174;-75
2021/07/22 01:55:13;;;;;;;10.60;4.40;;;;;;;24.65;43.78;102221.28;5075153;28;20020;-75
2021/07/22 01:57:39;;;;;;;9.55;5.70;;;;;;;24.61;43.46;102220.38;5073676;28;20020;-77
2021/07/22 02:00:05;;;;;;;13.85;5.25;;;;;;;24.50;42.80;102220.22;5075020;28;20071;-75
2021/07/22 02:02:32;;;;;;;7.07;4.55;;;;;;;24.42;43.16;102214.88;5074762;28;20486;-75
2021/07/22 02:04:59;;;;;;;9.55;5.20;;;;;;;24.41;43.26;102210.44;5074875;28;20431;-75
2021/07/22 02:07:25;;;;;;;13.07;5.70;;;;;;;24.38;43.54;102209.22;5074854;28;20056;-94
2021/07/22 02:09:50;;;;;;;28.60;5.65;;;;;;;24.35;43.26;102221.94;5073702;28;20106;-76
2021/07/22 02:12:16;;;;;;;9.80;4.65;;;;;;;24.25;43.37;102218.91;5074366;28;20043;-76
2021/07/22 02:14:42;;;;;;;12.88;5.68;;;;;;;24.13;43.29;102214.34;5073094;28;20425;-83
2021/07/22 02:17:08;;;;;;;11.88;6.35;;;;;;;24.12;43.44;102217.50;5074600;28;20029;-75
2021/07/22 02:19:34;;;;;;;8.57;5.72;;;;;;;24.16;43.75;102213.56;5074507;28;20112;-75
2021/07/22 02:22:00;;;;;;;5.57;4.65;;;;;;;24.22;43.45;102217.69;5074515;28;20024;-76
2021/07/22 02:24:26;;;;;;;8.85;5.50;;;;;;;24.26;43.82;102218.56;5073929;28;20497;-75
2021/07/22 02:26:51;;;;;;;8.88;5.90;;;;;;;24.25;43.65;102214.13;5074414;28;20020;-76
2021/07/22 02:29:17;;;;;;;10.05;5.22;;;;;;;24.24;43.69;102222.91;5074341;28;20052;-92
2021/07/22 02:31:43;;;;;;;12.80;5.63;;;;;;;24.25;43.81;102216.13;5074254;28;20029;-75
2021/07/22 02:34:08;;;;;;;12.55;5.70;;;;;;;24.22;43.72;102216.88;5074347;28;20074;-75
2021/07/22 02:36:34;;;;;;;8.57;5.25;;;;;;;24.30;43.79;102215.81;5074036;28;20044;-86
2021/07/22 02:39:00;;;;;;;6.47;4.50;;;;;;;24.18;43.91;102218.78;5074536;28;20056;-75
2021/07/22 02:41:29;;;;;;;5.45;4.65;;;;;;;24.19;44.09;102217.63;5074181;28;20024;-76
2021/07/22 02:43:56;;;;;;;11.00;5.13;;;;;;;24.52;43.19;102219.84;5074285;28;20036;-74
2021/07/22 02:46:21;;;;;;;8.85;5.47;;;;;;;24.62;43.01;102227.59;5074076;28;20060;-75
2021/07/22 02:48:47;;;;;;;8.75;5.30;;;;;;;24.51;43.23;102212.63;5073921;28;20029;-94
2021/07/22 02:51:12;;;;;;;8.65;4.88;;;;;;;24.40;43.47;102208.84;5074032;28;20029;-92
2021/07/22 02:53:38;;;;;;;11.40;5.35;;;;;;;24.23;43.97;102210.91;5071003;28;20060;-75
2021/07/22 02:56:04;;;;;;;23.83;5.60;;;;;;;24.23;43.83;102222.09;5073921;28;20032;-93
2021/07/22 02:58:31;;;;;;;8.73;4.60;;;;;;;24.12;43.63;102215.50;5073888;28;20072;-75
2021/07/22 03:00:57;;;;;;;16.17;5.43;;;;;;;24.11;43.05;102213.06;5073515;28;20039;-76
2021/07/22 03:03:23;;;;;;;7.38;5.45;;;;;;;23.97;43.46;102214.44;5073354;28;20031;-75
2021/07/22 03:05:49;;;;;;;17.50;5.63;;;;;;;24.04;43.40;102220.16;5071656;28;20036;-75
2021/07/22 03:08:15;;;;;;;15.70;5.57;;;;;;;23.97;43.19;102213.63;5073647;28;20028;-93
2021/07/22 03:10:41;;;;;;;15.25;5.82;;;;;;;23.97;43.23;102210.84;5073618;28;20467;-75
2021/07/22 03:13:06;;;;;;;11.00;5.85;;;;;;;23.93;43.21;102216.34;5073648;28;20036;-93
2021/07/22 03:15:32;;;;;;;8.18;6.60;;;;;;;23.92;43.58;102209.13;5072068;28;20555;-75
2021/07/22 03:17:58;;;;;;;9.05;5.85;;;;;;;23.99;43.45;102202.88;5073258;28;20028;-88
2021/07/22 03:20:23;;;;;;;6.82;5.95;;;;;;;24.02;43.51;102213.31;5073156;28;20036;-76
2021/07/22 03:22:49;;;;;;;11.23;5.90;;;;;;;24.02;43.86;102211.31;5071894;28;20114;-76
2021/07/22 03:25:15;;;;;;;7.97;6.22;;;;;;;24.06;43.92;102208.59;5073238;28;20521;-76
2021/07/22 03:27:41;;;;;;;11.98;7.80;;;;;;;24.03;43.88;102204.59;5073005;28;20033;-76
2021/07/22 03:30:07;;;;;;;12.90;7.65;;;;;;;23.94;44.22;102208.75;5072993;28;20040;-84
2021/07/22 03:32:35;;;;;;;12.60;7.40;;;;;;;23.91;44.06;102215.09;5072764;28;20509;-76
2021/07/22 03:35:01;;;;;;;11.45;7.13;;;;;;;23.84;44.30;102207.38;5070981;28;20105;-75
2021/07/22 03:37:26;;;;;;;10.05;6.90;;;;;;;23.86;44.06;102213.41;5072170;28;20028;-75
2021/07/22 03:39:52;;;;;;;14.95;8.07;;;;;;;23.79;44.37;102211.28;5073108;28;20646;-75
2021/07/22 03:42:17;;;;;;;9.43;7.70;;;;;;;23.79;44.71;102210.47;5072565;28;20033;-76
2021/07/22 03:44:43;;;;;;;13.48;8.13;;;;;;;23.78;44.34;102209.66;5072857;28;20059;-76
2021/07/22 03:47:09;;;;;;;9.48;7.75;;;;;;;23.73;44.68;102209.97;5072548;28;20108;-75
2021/07/22 03:49:34;;;;;;;12.98;8.68;;;;;;;23.77;45.04;102210.84;5071426;28;20075;-76
2021/07/22 03:52:01;;;;;;;14.65;8.85;;;;;;;23.80;45.00;102210.13;5072446;28;20031;-75
2021/07/22 03:54:27;;;;;;;10.55;8.48;;;;;;;23.73;44.98;102211.97;5072461;28;20475;-76
2021/07/22 03:56:53;;;;;;;11.75;7.68;;;;;;;23.89;44.70;102218.25;5072370;28;20078;-76
2021/07/22 03:59:19;;;;;;;13.20;7.70;;;;;;;23.79;44.55;102216.84;5072255;28;20074;-75
2021/07/22 04:01:44;;;;;;;12.68;8.40;;;;;;;23.84;44.38;102209.38;5072513;28;20036;-75
2021/07/22 04:04:10;;;;;;;12.05;7.03;;;;;;;23.74;44.73;102213.56;5072848;28;20103;-75
2021/07/22 04:06:40;;;;;;;10.80;8.02;;;;;;;23.66;44.98;102212.63;5070974;28;20021;-75
2021/07/22 04:09:05;;;;;;;14.05;8.27;;;;;;;23.61;44.92;102212.91;5072490;28;20115;-75
2021/07/22 04:11:31;;;;;;;10.10;7.80;;;;;;;23.63;44.80;102204.97;5072159;28;20112;-76
2021/07/22 04:13:57;;;;;;;10.63;8.80;;;;;;;23.60;44.72;102200.13;5072117;28;20031;-76
2021/07/22 04:16:22;;;;;;;15.38;8.60;;;;;;;23.58;44.76;102194.09;5072111;28;20109;-76
2021/07/22 04:18:48;;;;;;;14.38;9.18;;;;;;;23.70;44.87;102196.75;5072260;28;20033;-77
2021/07/22 04:21:13;;;;;;;12.20;8.95;;;;;;;23.69;44.58;102200.72;5072213;28;20039;-75
2021/07/22 04:23:39;;;;;;;14.52;9.25;;;;;;;23.60;44.88;102202.09;5072474;28;20099;-77
2021/07/22 04:26:05;;;;;;;14.40;9.63;;;;;;;23.67;45.13;102199.47;5072031;28;20040;-75
2021/07/22 04:28:30;;;;;;;14.48;9.02;;;;;;;23.66;45.21;102198.66;5070719;28;20028;-75
2021/07/22 04:30:56;;;;;;;16.48;9.90;;;;;;;23.56;45.61;102201.19;5072131;28;20647;-75
2021/07/22 04:33:21;;;;;;;21.92;9.90;;;;;;;23.53;45.28;102194.38;5072194;28;20032;-75
2021/07/22 04:35:47;;;;;;;17.17;9.93;;;;;;;23.63;45.06;102196.59;5071737;28;20552;-75
2021/07/22 04:38:13;;;;;;;28.42;14.20;;;;;;;23.62;45.64;102202.53;5072175;28;20589;-76
2021/07/22 04:40:38;;;;;;;43.05;14.27;;;;;;;23.77;45.37;102204.44;5072114;28;20048;-75
2021/07/22 04:43:04;;;;;;;45.63;15.88;;;;;;;23.83;45.44;102202.19;5071959;28;20031;-75
2021/07/22 04:45:30;;;;;;;61.15;16.45;;;;;;;23.84;45.63;102204.59;5071923;28;20040;-76
2021/07/22 04:47:55;;;;;;;46.17;17.65;;;;;;;23.83;46.33;102193.81;5071549;28;20043;-75
2021/07/22 04:50:21;;;;;;;55.30;17.70;;;;;;;23.84;46.54;102198.22;5071927;28;20090;-75
2021/07/22 04:52:47;;;;;;;41.75;16.13;;;;;;;24.03;45.57;102198.16;5070434;28;20074;-76
2021/07/22 04:55:12;;;;;;;38.30;14.82;;;;;;;24.12;45.78;102206.31;5072251;28;20031;-76
2021/07/22 04:57:38;;;;;;;30.15;14.77;;;;;;;24.13;45.46;102207.94;5071754;28;20089;-76
2021/07/22 05:00:05;;;;;;;32.97;13.20;;;;;;;24.11;45.61;102213.06;5070587;28;20025;-96
2021/07/22 05:02:31;;;;;;;29.50;13.90;;;;;;;24.11;45.78;102211.09;5071758;28;20059;-94
2021/07/22 05:04:56;;;;;;;26.35;12.18;;;;;;;24.12;45.47;102209.13;5070588;28;20024;-75
2021/07/22 05:07:22;;;;;;;21.42;11.25;;;;;;;24.34;45.11;102206.38;5071752;28;20364;-76
2021/07/22 05:09:48;;;;;;;21.88;12.38;;;;;;;24.01;45.65;102211.69;5071936;28;20025;-75
2021/07/22 05:12:13;;;;;;;24.58;11.95;;;;;;;23.96;46.26;102212.81;5071672;28;20421;-75
2021/07/22 05:14:39;;;;;;;25.77;12.23;;;;;;;23.98;45.79;102204.06;5072544;28;20040;-75
2021/07/22 05:17:05;;;;;;;24.33;13.88;;;;;;;23.93;46.07;102204.34;5072256;28;20032;-85
2021/07/22 05:19:30;;;;;;;28.83;12.80;;;;;;;23.95;46.20;102205.59;5072429;28;20028;-75
2021/07/22 05:21:56;;;;;;;20.02;13.27;;;;;;;24.02;46.05;102211.31;5072364;28;20028;-75
2021/07/22 05:24:22;;;;;;;31.48;14.75;;;;;;;23.92;46.77;102205.53;5072698;28;20036;-75
2021/07/22 05:26:49;;;;;;;30.27;13.40;;;;;;;24.01;46.60;102201.34;5071254;28;20032;-95
2021/07/22 05:29:15;;;;;;;38.17;15.75;;;;;;;24.12;46.32;102209.94;5071046;28;20032;-77
2021/07/22 05:31:41;;;;;;;25.83;14.77;;;;;;;24.03;46.50;102209.34;5070625;28;20051;-95
2021/07/22 05:34:07;;;;;;;42.63;14.57;;;;;;;24.00;47.06;102208.09;5071790;28;20100;-75
2021/07/22 05:36:33;;;;;;;28.13;16.05;;;;;;;24.03;46.92;102210.16;5070521;28;20139;-74
2021/07/22 05:39:00;;;;;;;25.65;16.08;;;;;;;24.05;47.13;102215.38;5072571;28;20035;-75
2021/07/22 05:41:25;;;;;;;28.02;16.13;;;;;;;24.09;47.34;102194.69;5071021;28;20032;-76
2021/07/22 05:43:51;;;;;;;26.88;15.82;;;;;;;24.22;47.31;102214.09;5072292;28;20035;-76
2021/07/22 05:46:21;;;;;;;25.33;16.90;;;;;;;24.27;47.38;102211.00;5072350;28;20024;-75
2021/07/22 05:48:47;;;;;;;24.83;16.58;;;;;;;24.26;47.74;102214.97;5072458;28;20083;-74
2021/07/22 05:51:13;;;;;;;19.75;15.07;;;;;;;24.38;47.41;102216.78;5070863;28;20029;-74
2021/07/22 05:53:38;;;;;;;27.60;14.95;;;;;;;24.45;47.46;102214.13;5063623;28;20025;-96
2021/07/22 05:56:04;;;;;;;20.42;14.68;;;;;;;24.53;47.64;102216.66;5051164;28;20115;-94
2021/07/22 05:58:30;;;;;;;19.98;15.85;;;;;;;24.71;47.58;102219.78;5052641;28;20029;-75
2021/07/22 06:00:57;;;;;;;23.17;15.82;;;;;;;24.76;47.76;102225.03;5055465;28;20054;-75
2021/07/22 06:03:23;;;;;;;27.63;16.73;;;;;;;25.00;47.33;102225.78;5054079;28;20428;-74
2021/07/22 06:05:48;;;;;;;20.45;16.67;;;;;;;25.20;47.35;102218.94;5055859;28;20021;-95
2021/07/22 06:08:14;;;;;;;30.23;14.68;;;;;;;25.33;47.22;102219.53;5055744;28;20021;-75
2021/07/22 06:10:40;;;;;;;22.27;15.93;;;;;;;25.37;47.57;102217.56;5055899;28;20100;-77
2021/07/22 06:13:06;;;;;;;16.50;14.30;;;;;;;25.62;47.29;102212.31;5055878;28;20032;-76
2021/07/22 06:15:32;;;;;;;21.77;14.02;;;;;;;25.70;47.27;102211.22;5054066;28;20044;-75
2021/07/22 06:17:57;;;;;;;18.85;14.30;;;;;;;25.73;47.73;102213.28;5055649;28;20100;-76
2021/07/22 06:20:23;;;;;;;19.00;14.23;;;;;;;26.04;47.56;102216.81;5054788;28;20025;-79
2021/07/22 06:22:48;;;;;;;25.77;15.23;;;;;;;26.19;47.16;102208.19;5054481;28;20032;-91
2021/07/22 06:25:15;;;;;;;17.58;14.90;;;;;;;26.38;46.96;102209.97;5055501;28;20082;-75
2021/07/22 06:27:42;;;;;;;18.52;14.73;;;;;;;26.54;47.22;102212.53;5055503;28;20032;-75
2021/07/22 06:30:09;;;;;;;23.58;15.43;;;;;;;26.55;47.45;102214.94;5054553;28;20083;-94
2021/07/22 06:32:35;;;;;;;24.20;15.30;;;;;;;26.68;47.78;102217.47;5053851;28;20032;-75
2021/07/22 06:35:00;;;;;;;29.90;16.23;;;;;;;26.74;48.20;102215.88;5054983;28;20041;-86
2021/07/22 06:37:26;;;;;;;23.33;16.23;;;;;;;26.94;48.29;102213.63;5054262;28;20025;-88
2021/07/22 06:39:51;;;;;;;69.03;20.02;;;;;;;27.07;48.35;102218.56;5054568;28;20029;-80
2021/07/22 06:42:17;;;;;;;21.17;14.05;;;;;;;27.44;48.23;102211.97;5053204;28;20032;-80
2021/07/22 06:44:43;;;;;;;20.85;15.45;;;;;;;27.68;48.01;102206.88;5054995;28;20392;-88
2021/07/22 06:47:09;;;;;;;30.70;15.23;;;;;;;27.89;48.15;102201.34;5054945;28;20112;-86
2021/07/22 06:49:34;;;;;;;16.48;12.90;;;;;;;27.96;48.65;102209.75;5055483;28;20024;-82
2021/07/22 06:52:00;;;;;;;21.02;15.30;;;;;;;28.26;48.19;102203.78;5053900;28;20037;-80
2021/07/22 06:54:25;;;;;;;39.10;14.48;;;;;;;28.23;48.70;102203.78;5055344;28;20025;-81
2021/07/22 06:56:51;;;;;;;19.85;12.98;;;;;;;28.32;48.71;102207.03;5054424;28;20033;-82
2021/07/22 06:59:16;;;;;;;14.40;11.00;;;;;;;28.50;49.06;102202.25;5054774;28;20021;-80
2021/07/22 07:01:43;;;;;;;17.63;10.88;;;;;;;28.57;49.41;102205.06;5054786;28;20032;-82
2021/07/22 07:04:08;;;;;;;17.40;9.35;;;;;;;28.71;49.15;102204.22;5055227;28;20031;-86
2021/07/22 07:06:35;;;;;;;30.77;10.82;;;;;;;28.84;49.05;102199.00;5054320;28;20029;-83
2021/07/22 07:09:01;;;;;;;15.18;7.78;;;;;;;29.00;49.30;102202.22;5054436;28;20600;-82
2021/07/22 07:11:27;;;;;;;8.40;6.15;;;;;;;29.62;47.06;102198.81;5053993;28;20453;-90
2021/07/22 07:13:52;;;;;;;9.30;6.00;;;;;;;29.77;46.55;102205.97;5053975;28;20024;-84
2021/07/22 07:16:19;;;;;;;7.70;4.75;;;;;;;30.04;46.08;102203.41;5055131;28;20039;-84
2021/07/22 07:18:45;;;;;;;8.77;5.32;;;;;;;29.94;45.78;102203.50;5054864;28;20100;-78
2021/07/22 07:21:10;;;;;;;7.72;5.10;;;;;;;29.96;45.69;102203.88;5061179;28;20052;-87
2021/07/22 07:23:36;;;;;;;9.32;3.65;;;;;;;30.09;45.17;102205.84;5073789;28;20032;-86
2021/07/22 07:26:02;;;;;;;6.00;4.65;;;;;;;30.25;44.61;102207.34;5074084;28;20078;-84
2021/07/22 07:28:27;;;;;;;7.82;5.03;;;;;;;30.28;44.90;102207.28;5073267;28;20025;-90
2021/07/22 07:30:53;;;;;;;7.97;4.30;;;;;;;30.42;44.27;102202.78;5075113;28;20391;-85
2021/07/22 07:33:21;;;;;;;9.85;4.43;;;;;;;30.51;44.11;102208.72;5073305;28;20024;-85
2021/07/22 07:35:47;;;;;;;7.60;3.75;;;;;;;30.52;43.53;102208.31;5073890;28;20063;-84
2021/07/22 07:38:13;;;;;;;12.82;4.95;;;;;;;30.56;43.92;102199.84;5074853;28;20153;-93
2021/07/22 07:40:38;;;;;;;8.23;4.30;;;;;;;30.51;43.87;102200.28;5073584;28;20050;-84
2021/07/22 07:43:05;;;;;;;9.25;4.30;;;;;;;30.65;43.53;102203.78;5072933;28;20089;-84
2021/07/22 07:45:30;;;;;;;10.05;4.38;;;;;;;30.81;42.58;102206.06;5073460;28;20056;-83
2021/07/22 07:47:56;;;;;;;8.20;4.15;;;;;;;30.82;42.58;102204.84;5072920;28;20032;-94
2021/07/22 07:50:22;;;;;;;7.88;4.15;;;;;;;30.92;41.70;102206.78;5073654;28;20033;-89
2021/07/22 07:52:48;;;;;;;7.43;4.70;;;;;;;30.93;41.71;102205.56;5072558;28;20036;-91
2021/07/22 07:55:15;;;;;;;6.88;3.95;;;;;;;31.15;41.14;102208.94;5070110;28;20047;-87
2021/07/22 07:57:41;;;;;;;13.38;5.00;;;;;;;31.09;41.27;102198.53;5073495;28;20028;-91
2021/07/22 08:00:08;;;;;;;8.38;4.85;;;;;;;31.21;41.24;102207.28;5074869;28;20017;-93
2021/07/22 08:02:34;;;;;;;6.38;5.03;;;;;;;31.28;41.30;102203.56;5074982;28;20435;-85
2021/07/22 08:05:01;;;;;;;8.43;4.32;;;;;;;31.30;41.08;102203.16;5073796;28;20020;-85
2021/07/22 08:07:27;;;;;;;6.38;3.80;;;;;;;31.35;40.69;102211.97;5073288;28;20048;-86
2021/07/22 08:09:53;;;;;;;8.38;3.65;;;;;;;31.36;40.24;102207.94;5073195;28;20025;-89
2021/07/22 08:12:19;;;;;;;7.57;4.13;;;;;;;31.34;40.25;102215.22;5076123;28;20024;-96
2021/07/22 08:14:46;;;;;;;12.68;3.75;;;;;;;31.40;40.26;102211.50;5074678;28;20064;-84
2021/07/22 08:17:16;;;;;;;6.32;4.40;;;;;;;31.36;40.61;102207.09;5073279;28;20032;-85
2021/07/22 08:19:42;;;;;;;14.18;5.10;;;;;;;31.49;41.06;102216.63;5073222;28;20028;-80
2021/07/22 08:22:13;;;;;;;11.27;5.28;;;;;;;31.45;41.05;102215.91;5071931;28;20052;-81
2021/07/22 08:24:39;;;;;;;11.20;3.63;;;;;;;31.51;40.76;102208.53;5069916;28;20028;-80
2021/07/22 08:27:05;;;;;;;6.32;4.30;;;;;;;31.56;40.45;102207.28;5072803;28;20483;-84
2021/07/22 08:29:31;;;;;;;5.57;3.45;;;;;;;31.71;39.64;102211.50;5074037;28;20017;-92
2021/07/22 08:31:57;;;;;;;6.43;3.78;;;;;;;31.76;38.96;102217.50;5074547;28;20046;-85
2021/07/22 08:34:23;;;;;;;5.88;3.63;;;;;;;31.83;38.76;102210.97;5074885;28;20115;-85
2021/07/22 08:36:49;;;;;;;12.00;4.80;;;;;;;31.89;39.27;102211.28;5064953;28;20048;-85
2021/07/22 08:39:14;;;;;;;25.80;5.95;;;;;;;31.91;38.63;102206.81;5061596;28;20728;-95
2021/07/22 08:41:47;;;;;;;10.63;4.38;;;;;;;32.08;37.81;102202.13;5061028;28;20037;-86
2021/07/22 08:44:13;;;;;;;6.65;4.00;;;;;;;32.19;37.76;102207.59;5061403;28;20032;-84
2021/07/22 08:46:45;;;;;;;9.07;3.83;;;;;;;32.19;37.11;102213.25;5062541;28;20024;-85
2021/07/22 08:49:11;;;;;;;7.05;3.17;;;;;;;32.26;36.70;102204.66;5060738;28;20765;-91
2021/07/22 08:51:37;;;;;;;9.60;4.82;;;;;;;32.33;36.93;102201.75;5060659;28;20032;-87
2021/07/22 08:54:03;;;;;;;7.30;4.00;;;;;;;32.41;36.58;102203.22;5060584;28;20109;-86
2021/07/22 08:56:31;;;;;;;10.90;4.75;;;;;;;32.34;36.67;102200.53;5060489;28;20059;-84
2021/07/22 08:59:00;;;;;;;7.70;4.20;;;;;;;32.55;36.44;102203.00;5063396;28;20107;-88
2021/07/22 09:01:30;;;;;;;8.55;4.78;;;;;;;32.63;36.35;102195.19;5059692;28;20094;-87
2021/07/22 09:03:59;;;;;;;5.70;4.03;;;;;;;32.56;36.02;102204.59;5061509;28;20111;-89
2021/07/22 09:06:25;;;;;;;9.23;3.67;;;;;;;32.71;35.72;102195.84;5059719;28;20106;-86
2021/07/22 09:08:51;;;;;;;17.85;4.60;;;;;;;32.61;35.88;102199.69;5072822;28;20028;-84
2021/07/22 09:11:16;;;;;;;8.70;4.35;;;;;;;32.59;35.91;102202.94;5059960;28;20016;-85
2021/07/22 09:13:42;;;;;;;11.63;4.55;;;;;;;32.56;36.47;102209.44;5058746;28;20020;-84
2021/07/22 09:16:11;;;;;;;7.22;3.65;;;;;;;32.40;36.66;102210.13;5059416;28;20547;-86
2021/07/22 09:18:43;;;;;;;8.35;4.30;;;;;;;32.42;37.02;102202.03;5061321;28;20464;-87
2021/07/22 09:21:29;;;;;;;15.35;6.38;;;;;;;32.74;36.69;102200.66;5064348;28;20042;-85
2021/07/22 09:24:11;;;;;;;5.95;3.40;;;;;;;32.66;36.32;102196.38;5061898;28;20032;-89
2021/07/22 09:26:39;;;;;;;7.63;4.00;;;;;;;32.98;36.37;102202.25;5060838;28;20082;-96
2021/07/22 09:29:07;;;;;;;5.95;3.00;;;;;;;33.04;36.20;102203.34;5062144;28;20021;-83
2021/07/22 09:31:33;;;;;;;6.38;3.10;;;;;;;33.11;35.88;102200.38;5065421;28;20031;-94
2021/07/22 09:33:59;;;;;;;8.25;3.83;;;;;;;33.13;35.53;102203.56;5068043;28;20040;-87
2021/07/22 09:36:28;;;;;;;12.50;4.97;;;;;;;33.17;35.46;102199.88;5064336;28;20123;-84
2021/07/22 09:39:14;;;;;;;5.43;3.23;;;;;;;33.26;35.31;102198.06;5062153;28;20025;-84
2021/07/22 09:41:40;;;;;;;6.35;3.13;;;;;;;33.24;35.83;102200.53;5060604;28;20288;-85
2021/07/22 09:44:05;;;;;;;7.22;3.65;;;;;;;33.09;35.92;102196.38;5064425;28;20550;-89
2021/07/22 09:46:41;;;;;;;6.63;3.53;;;;;;;33.27;35.33;102193.22;5064076;28;20092;-84
2021/07/22 09:49:08;;;;;;;5.75;3.85;;;;;;;33.30;35.28;102192.31;5061244;28;20489;-83
2021/07/22 09:51:34;;;;;;;7.30;3.60;;;;;;;33.29;35.04;102194.34;5060224;28;20040;-80
2021/07/22 09:54:07;;;;;;;6.88;3.70;;;;;;;33.27;34.97;102196.84;5052358;28;20025;-88
2021/07/22 09:56:54;;;;;;;16.55;5.25;;;;;;;33.35;35.61;102200.31;5059504;28;20044;-87
2021/07/22 09:59:21;;;;;;;5.40;3.58;;;;;;;33.47;35.13;102199.66;5058348;28;20838;-87
2021/07/22 10:01:48;;;;;;;14.93;3.90;;;;;;;33.65;34.92;102197.25;5053354;28;20784;-85
2021/07/22 10:04:17;;;;;;;11.35;3.90;;;;;;;33.61;35.11;102195.72;5061108;28;20052;-86
2021/07/22 10:06:45;;;;;;;6.28;3.35;;;;;;;33.60;34.87;102189.28;5062528;28;20036;-88
2021/07/22 10:09:17;;;;;;;5.15;3.55;;;;;;;33.54;35.08;102199.53;5061106;28;20039;-89
2021/07/22 10:11:43;;;;;;;7.18;3.90;;;;;;;33.69;34.94;102197.16;5096099;27;20103;-87
2021/07/22 10:14:11;;;;;;;7.35;3.78;;;;;;;33.79;34.52;102199.00;5060995;28;20123;-89
2021/07/22 10:16:38;;;;;;;10.15;3.40;;;;;;;33.74;34.88;102202.31;5060019;28;20589;-87
2021/07/22 10:19:04;;;;;;;7.05;3.42;;;;;;;33.79;34.61;102203.84;5058302;28;20120;-80
2021/07/22 10:21:31;;;;;;;6.00;4.65;;;;;;;33.82;34.59;102209.44;5056778;28;20033;-84
2021/07/22 10:23:57;;;;;;;6.78;3.45;;;;;;;33.93;33.96;102209.22;5063542;28;20024;-87
2021/07/22 10:26:24;;;;;;;6.40;3.75;;;;;;;33.83;34.02;102211.03;5086933;28;20038;-81
2021/07/22 10:28:50;;;;;;;5.80;4.38;;;;;;;34.02;33.73;102203.75;5092528;28;20024;-91
2021/07/22 10:31:16;;;;;;;9.43;4.10;;;;;;;34.04;33.19;102201.25;5093107;28;20093;-86
2021/07/22 10:33:45;;;;;;;7.63;4.60;;;;;;;33.99;32.91;102201.78;5093459;28;20078;-86
2021/07/22 10:36:12;;;;;;;6.32;4.22;;;;;;;34.07;32.75;102208.88;5091986;28;20036;-86
2021/07/22 10:38:46;;;;;;;6.95;4.55;;;;;;;34.20;32.28;102208.97;5085338;28;20017;-90
2021/07/22 10:41:39;;;;;;;5.57;4.38;;;;;;;34.20;31.90;102208.97;5073512;28;20426;-94
2021/07/22 10:44:31;;;;;;;9.38;5.03;;;;;;;34.35;31.51;102207.38;5073344;28;20056;-84
2021/07/22 10:47:02;;;;;;;9.73;5.05;;;;;;;34.40;31.34;102215.41;5072510;28;20032;-80
2021/07/22 10:49:39;;;;;;;8.15;4.72;;;;;;;34.45;31.47;102211.22;5071388;28;20032;-82
2021/07/22 10:52:05;;;;;;;8.95;4.65;;;;;;;34.54;31.64;102210.59;5078824;28;20032;-78
2021/07/22 10:54:53;;;;;;;11.55;5.60;;;;;;;34.53;31.20;102211.84;5070129;28;20069;-80
2021/07/22 10:57:28;;;;;;;10.38;5.13;;;;;;;34.49;31.49;102214.78;5070520;28;20094;-86
2021/07/22 10:59:57;;;;;;;9.65;4.55;;;;;;;34.64;31.09;102207.50;5079645;28;20055;-82
2021/07/22 11:02:49;;;;;;;5.50;4.85;;;;;;;34.51;31.30;102215.13;5090276;28;20027;-76
2021/07/22 11:05:24;;;;;;;5.95;4.72;;;;;;;34.74;31.61;102211.28;5050676;28;20128;-83
2021/07/22 11:08:19;;;;;;;8.77;4.80;;;;;;;34.68;32.18;102213.84;5064033;28;20097;-82
2021/07/22 11:10:55;;;;;;;5.57;4.00;;;;;;;34.63;32.87;102211.59;5075318;28;20023;-86
2021/07/22 11:13:39;;;;;;;7.80;4.72;;;;;;;34.69;31.97;102220.38;5074530;28;20021;-81
2021/07/22 11:16:07;;;;;;;6.47;4.80;;;;;;;34.59;32.68;102216.53;5075014;28;20025;-88
2021/07/22 11:21:07;;;;;;;6.57;4.68;;;;;;;34.84;32.75;102204.53;5073056;28;20382;-82